Time;durP1;ratioP1;P1;durP2;ratioP2;P2;SDS_P1;SDS_P2;PMS_P1;PMS_P2;Temp;Humidity;BMP_temperature;BMP_pressure;BME280_temperature;BME280_humidity;BME280_pressure;Samples;Min_cycle;Max_cycle;Signal;HPM_P1;HPM_P2
2022/01/07 15:25:35;;;;;;;7.38;1.45;;;;;;;5.45;62.24;101009.41;5085001;27;20778;-86
2022/01/07 15:32:51;;;;;;;2.00;0.50;;;;;;;8.31;77.17;101018.81;5072026;28;20381;-67
2022/01/07 15:35:19;;;;;;;1.88;0.40;;;;;;;9.96;71.30;101011.13;5068783;28;20498;-66
2022/01/07 15:37:45;;;;;;;0.73;0.20;;;;;;;11.16;66.73;101017.06;5071145;28;20482;-66
2022/01/07 15:40:10;;;;;;;;;;;;;;;12.01;63.37;101015.38;5084997;28;20580;-66
2022/01/07 15:42:41;;;;;;;1.07;0.30;;;;;;;12.65;61.07;101006.53;5071346;28;19920;-64
2022/01/07 15:45:07;;;;;;;0.33;0.20;;;;;;;13.17;59.18;101005.34;5077398;28;20020;-67
2022/01/07 15:47:32;;;;;;;0.38;0.20;;;;;;;13.55;57.95;101007.59;5067204;28;20603;-67
2022/01/07 15:49:57;;;;;;;0.63;0.38;;;;;;;13.77;56.73;101001.78;5068531;28;20517;-68
2022/01/07 15:52:25;;;;;;;4.97;0.85;;;;;;;13.42;55.37;101004.78;5071428;28;20489;-67
2022/01/07 15:54:53;;;;;;;0.50;0.40;;;;;;;13.45;55.20;101014.44;5064356;28;20072;-67
2022/01/07 16:16:46;;;;;;;0.50;0.47;;;;;;;15.44;51.00;101029.63;5054629;28;21796;-66
2022/01/07 16:19:11;;;;;;;0.37;0.37;;;;;;;15.34;51.12;101032.94;5058682;28;20025;-65
2022/01/07 16:21:37;;;;;;;1.30;0.50;;;;;;;15.28;51.20;101032.50;5063823;28;20025;-65
2022/01/07 16:27:11;;;;;;;5.50;1.70;;;;;;;11.81;45.24;101029.75;5160650;27;20973;-90
2022/01/07 16:29:37;;;;;;;7.97;1.80;;;;;;;9.49;52.40;101027.44;5114145;27;20281;-90
2022/01/07 16:32:02;;;;;;;5.22;1.35;;;;;;;7.64;58.17;101032.78;5131135;27;20105;-86
2022/01/07 16:34:27;;;;;;;7.88;1.67;;;;;;;6.29;63.08;101031.81;5131805;27;20051;-91
2022/01/07 16:36:53;;;;;;;4.50;1.55;;;;;;;5.30;69.33;101031.84;5129990;27;20027;-84
2022/01/07 16:39:18;;;;;;;6.57;1.75;;;;;;;4.59;75.49;101029.13;5128161;27;20072;-84
2022/01/07 16:41:44;;;;;;;12.52;2.40;;;;;;;4.08;79.75;101041.66;5111348;27;20035;-85
2022/01/07 16:44:12;;;;;;;6.80;2.10;;;;;;;3.69;82.02;101032.72;5110989;27;20026;-82
2022/01/07 16:46:38;;;;;;;4.22;1.77;;;;;;;3.39;82.74;101033.28;5129426;27;20465;-84
2022/01/07 16:49:03;;;;;;;6.60;2.17;;;;;;;3.14;85.04;101032.84;5130780;27;20027;-88
2022/01/07 16:51:28;;;;;;;7.93;2.90;;;;;;;2.88;86.13;101026.22;5132011;27;20058;-88
2022/01/07 16:53:54;;;;;;;5.35;1.85;;;;;;;2.70;87.08;101030.00;5128837;27;20023;-82
2022/01/07 16:56:19;;;;;;;5.85;1.60;;;;;;;2.61;87.43;101027.50;5125934;27;20118;-83
2022/01/07 16:58:44;;;;;;;4.45;1.60;;;;;;;2.53;88.33;101030.22;5112233;27;20019;-83
2022/01/07 17:01:12;;;;;;;4.78;1.73;;;;;;;2.49;88.89;101028.53;5128297;27;20031;-83
2022/01/07 17:03:37;;;;;;;6.07;1.60;;;;;;;2.48;88.65;101035.59;5110114;27;20116;-83
2022/01/07 17:06:05;;;;;;;4.07;1.88;;;;;;;2.42;89.20;101040.03;5112770;27;20027;-88
2022/01/07 17:08:32;;;;;;;11.80;2.05;;;;;;;2.38;89.13;101041.84;5129300;27;20522;-84
2022/01/07 17:10:57;;;;;;;5.82;1.98;;;;;;;2.34;89.78;101035.75;5125860;27;20481;-83
2022/01/07 17:13:23;;;;;;;5.10;1.48;;;;;;;2.32;90.08;101034.91;5124222;27;20108;-83
2022/01/07 17:15:48;;;;;;;12.52;1.92;;;;;;;2.28;89.85;101030.56;5102942;27;20108;-84
2022/01/07 17:18:14;;;;;;;6.63;1.60;;;;;;;2.22;90.17;101028.03;5105122;27;20029;-84
2022/01/07 17:20:39;;;;;;;8.73;1.77;;;;;;;2.17;89.96;101032.47;5129041;27;20075;-84
2022/01/07 17:23:05;;;;;;;6.30;1.70;;;;;;;2.18;89.98;101028.94;5130691;27;20030;-88
2022/01/07 17:25:31;;;;;;;7.78;1.75;;;;;;;2.20;90.19;101027.19;5131588;27;20039;-85
2022/01/07 17:30:35;;;;;;;8.65;1.42;;;;;;;2.36;89.42;101017.28;5349920;22;20094;-84
2022/01/07 17:33:09;;;;;;;10.88;1.52;;;;;;;2.37;89.03;101017.31;5033533;28;20478;-85
2022/01/07 17:35:35;;;;;;;10.15;1.02;;;;;;;2.41;88.06;101009.34;5033624;28;20104;-85
2022/01/07 17:38:18;;;;;;;6.97;1.58;;;;;;;2.44;87.48;101014.56;5040361;28;20165;-85
2022/01/07 17:40:44;;;;;;;6.00;1.50;;;;;;;2.41;86.67;101014.59;5002942;28;20037;-85
2022/01/07 17:43:18;;;;;;;6.80;1.42;;;;;;;2.50;85.90;101023.25;5000903;28;20586;-87
2022/01/07 17:45:46;;;;;;;6.70;1.50;;;;;;;2.61;84.73;101028.34;5001086;28;20387;-87
2022/01/07 17:48:12;;;;;;;8.18;1.77;;;;;;;2.65;83.14;101029.19;5001972;28;20025;-86
2022/01/07 17:51:03;;;;;;;9.82;1.30;;;;;;;2.73;82.18;101035.19;5021144;28;20031;-86
2022/01/07 17:53:29;;;;;;;6.38;1.15;;;;;;;2.76;81.50;101029.91;5022328;28;20055;-85
2022/01/07 17:55:57;;;;;;;8.65;1.20;;;;;;;2.82;80.46;101034.22;5022254;28;20017;-84
2022/01/07 17:58:22;;;;;;;8.60;1.48;;;;;;;2.87;80.35;101034.16;5019919;28;20048;-85
2022/01/07 18:00:48;;;;;;;5.68;1.30;;;;;;;2.94;80.53;101034.00;5016629;28;20071;-84
2022/01/07 18:03:13;;;;;;;10.30;2.00;;;;;;;3.05;78.93;101035.63;5019561;28;20394;-84
2022/01/07 18:05:41;;;;;;;7.77;1.60;;;;;;;3.19;77.96;101027.47;5020446;28;20033;-85
2022/01/07 18:08:07;;;;;;;3.78;1.08;;;;;;;3.27;77.22;101029.09;5055098;28;20757;-84
2022/01/07 18:10:32;;;;;;;7.15;1.10;;;;;;;3.30;75.64;101031.66;5014675;28;20025;-84
2022/01/07 18:12:58;;;;;;;13.20;1.48;;;;;;;3.30;75.62;101033.44;5020620;28;20031;-84
2022/01/07 18:15:23;;;;;;;7.20;1.75;;;;;;;3.27;76.91;101030.84;5020443;28;20039;-83
2022/01/07 18:17:49;;;;;;;6.65;1.30;;;;;;;3.24;76.76;101033.53;5020908;28;20043;-83
2022/01/07 18:20:17;;;;;;;7.22;1.15;;;;;;;3.21;77.12;101038.84;5037222;28;20070;-86
2022/01/07 18:22:43;;;;;;;4.70;1.05;;;;;;;3.17;77.43;101028.38;5036648;28;20025;-83
2022/01/07 18:25:10;;;;;;;6.80;1.30;;;;;;;3.16;77.22;101037.19;5020292;28;20479;-84
2022/01/07 18:27:35;;;;;;;5.35;1.30;;;;;;;3.15;76.74;101034.53;5019851;28;20037;-83
2022/01/07 18:30:02;;;;;;;7.60;0.90;;;;;;;3.10;77.29;101037.28;5036790;28;20090;-83
2022/01/07 18:32:27;;;;;;;;;;;;;;;3.04;77.13;101039.13;5020911;28;20043;-83
2022/01/07 18:34:53;;;;;;;3.80;0.90;;;;;;;2.95;78.43;101041.03;5019889;28;19909;-84
2022/01/07 18:37:20;;;;;;;5.13;1.40;;;;;;;2.92;77.72;101038.44;5037005;28;20047;-82
2022/01/07 18:39:52;;;;;;;4.90;1.38;;;;;;;2.92;77.66;101041.06;5020213;28;20063;-83
2022/01/07 18:42:18;;;;;;;8.50;1.20;;;;;;;2.95;77.18;101042.81;5036656;28;20040;-82
2022/01/07 18:44:43;;;;;;;;;;;;;;;3.02;76.54;101039.19;5037083;28;20021;-85
2022/01/07 18:47:13;;;;;;;9.93;1.23;;;;;;;3.03;76.30;101045.31;5019962;28;19912;-84
2022/01/07 18:49:40;;;;;;;6.63;1.08;;;;;;;2.99;76.22;101050.59;5053808;28;20482;-83
2022/01/07 18:52:05;;;;;;;7.87;1.30;;;;;;;3.00;76.51;101047.09;5019927;28;20552;-84
2022/01/07 18:54:31;;;;;;;7.40;1.17;;;;;;;3.13;74.60;101052.19;5053885;28;20275;-83
2022/01/07 18:56:56;;;;;;;3.97;1.30;;;;;;;3.19;76.52;101059.09;5036271;28;20021;-83
2022/01/07 18:59:22;;;;;;;8.00;1.50;;;;;;;3.19;76.16;101057.34;5019613;28;20029;-83
2022/01/07 19:01:47;;;;;;;3.97;0.93;;;;;;;3.23;75.69;101059.03;5035887;28;20032;-84
2022/01/07 19:04:12;;;;;;;3.30;0.85;;;;;;;3.21;75.54;101067.84;5036696;28;20036;-84
2022/01/07 19:06:38;;;;;;;8.77;1.40;;;;;;;3.18;76.07;101050.31;5019846;28;20025;-86
2022/01/07 19:09:06;;;;;;;3.60;1.20;;;;;;;3.23;75.95;101053.75;5019952;28;20035;-86
2022/01/07 19:11:32;;;;;;;2.80;1.02;;;;;;;3.25;76.27;101046.69;5020557;28;20021;-84
2022/01/07 19:14:03;;;;;;;2.60;0.95;;;;;;;3.22;76.71;101049.38;5020311;28;20029;-84
2022/01/07 19:16:28;;;;;;;4.43;1.60;;;;;;;3.17;76.54;101045.94;5019993;28;20390;-84
2022/01/07 19:18:53;;;;;;;5.75;1.60;;;;;;;3.15;76.89;101045.97;5019528;28;20021;-83
2022/01/07 19:21:19;;;;;;;5.63;1.50;;;;;;;3.12;76.91;101048.66;5035591;28;20052;-82
2022/01/07 19:23:48;;;;;;;7.55;1.70;;;;;;;3.10;77.65;101049.59;5019147;28;20069;-86
2022/01/07 19:26:21;;;;;;;5.38;1.45;;;;;;;3.04;78.20;101062.88;5021605;28;20076;-83
2022/01/07 19:28:48;;;;;;;9.95;1.77;;;;;;;3.01;78.00;101058.50;5035910;28;20036;-83
2022/01/07 19:31:13;;;;;;;8.18;1.50;;;;;;;2.96;78.33;101061.22;5034813;28;20553;-83
2022/01/07 19:33:39;;;;;;;4.63;1.30;;;;;;;2.99;78.39;101061.16;5034803;28;20017;-83
2022/01/07 19:36:10;;;;;;;10.70;1.60;;;;;;;2.99;78.19;101066.41;5034599;28;20028;-83
2022/01/07 19:38:36;;;;;;;6.25;1.60;;;;;;;2.97;78.20;101068.22;5033606;28;20059;-85
2022/01/07 19:41:05;;;;;;;11.88;1.25;;;;;;;2.98;78.07;101064.72;5017623;28;20506;-84
2022/01/07 19:43:30;;;;;;;7.00;1.88;;;;;;;2.97;78.26;101073.50;5016324;28;20445;-81
2022/01/07 19:45:55;;;;;;;8.30;1.35;;;;;;;2.95;78.37;101074.44;5048918;28;20025;-83
2022/01/07 19:48:21;;;;;;;4.60;1.13;;;;;;;2.91;77.67;101068.31;5016940;28;20024;-83
2022/01/07 19:50:46;;;;;;;3.28;0.98;;;;;;;2.88;77.88;101065.72;5016668;28;20020;-84
2022/01/07 19:53:13;;;;;;;5.45;1.10;;;;;;;2.87;78.17;101066.63;5033364;28;20025;-83
2022/01/07 19:55:38;;;;;;;5.50;1.35;;;;;;;2.92;77.30;101066.56;5017191;28;20078;-85
2022/01/07 19:58:04;;;;;;;5.93;1.50;;;;;;;2.89;77.80;101072.75;5034345;28;20020;-83
2022/01/07 20:00:30;;;;;;;6.45;1.23;;;;;;;2.90;77.45;101063.94;5017948;28;20072;-83
2022/01/07 20:02:55;;;;;;;4.50;0.90;;;;;;;2.95;77.18;101067.38;5022026;28;20028;-89
2022/01/07 20:05:20;;;;;;;2.75;1.00;;;;;;;2.96;77.56;101062.97;5023370;28;20041;-90
2022/01/07 20:07:52;;;;;;;4.57;1.50;;;;;;;2.95;77.64;101059.47;5022760;28;20020;-89
2022/01/07 20:10:19;;;;;;;4.53;1.40;;;;;;;2.93;77.82;101065.66;5022472;28;20035;-88
2022/01/07 20:12:50;;;;;;;8.63;1.20;;;;;;;2.85;77.91;101065.75;5018192;28;20056;-89
2022/01/07 20:15:16;;;;;;;4.18;1.00;;;;;;;2.79;78.88;101065.84;5019441;28;20023;-90
2022/01/07 20:17:42;;;;;;;8.27;1.10;;;;;;;2.81;78.78;101074.63;5019985;28;20539;-89
2022/01/07 20:20:08;;;;;;;7.50;1.17;;;;;;;2.81;78.78;101072.00;5020748;28;20048;-88
2022/01/07 20:22:34;;;;;;;;;;;;;;;2.79;78.48;101076.41;5036993;28;20395;-88
2022/01/07 20:25:00;;;;;;;1.17;0.70;;;;;;;2.74;78.80;101073.81;5021311;28;19909;-88
2022/01/07 20:27:26;;;;;;;6.07;0.98;;;;;;;2.72;79.26;101072.97;5019427;28;20470;-89
2022/01/07 20:29:55;;;;;;;;;;;;;;;2.65;79.59;101072.22;5018977;28;20056;-89
2022/01/07 20:32:20;;;;;;;6.22;1.27;;;;;;;2.63;79.80;101079.25;5021104;28;19941;-89
2022/01/07 20:34:46;;;;;;;3.03;0.90;;;;;;;2.67;79.87;101075.69;5035644;28;20111;-90
2022/01/07 20:37:11;;;;;;;;;;;;;;;2.76;79.73;101085.22;5018649;28;20043;-88
2022/01/07 20:39:37;;;;;;;4.37;1.00;;;;;;;2.89;79.75;101087.66;5035611;28;19913;-90
2022/01/07 20:42:08;;;;;;;7.18;1.35;;;;;;;2.92;79.30;101085.00;5020750;28;20029;-88
2022/01/07 20:44:34;;;;;;;4.25;1.13;;;;;;;2.94;78.27;101083.22;5054956;28;20060;-90
2022/01/07 20:47:05;;;;;;;2.92;0.90;;;;;;;2.91;77.96;101078.84;5037059;28;20490;-91
2022/01/07 20:49:30;;;;;;;4.90;1.10;;;;;;;2.82;78.28;101073.72;5036281;28;20370;-90
2022/01/07 20:52:07;;;;;;;5.53;0.93;;;;;;;2.75;78.37;101075.56;5020682;28;20040;-90
2022/01/07 20:54:38;;;;;;;3.35;1.00;;;;;;;2.71;78.09;101076.53;5022407;28;20387;-90
2022/01/07 20:57:09;;;;;;;3.45;1.00;;;;;;;2.67;78.29;101083.59;5024403;28;20028;-90
2022/01/07 20:59:35;;;;;;;16.02;2.20;;;;;;;2.65;78.21;101082.75;5022912;28;20025;-90
2022/01/07 21:02:01;;;;;;;8.52;1.52;;;;;;;2.67;78.10;101087.97;5021396;28;20075;-88
2022/01/07 21:04:26;;;;;;;3.80;1.30;;;;;;;2.64;78.34;101085.41;5019908;28;20029;-89
2022/01/07 21:06:53;;;;;;;9.02;1.73;;;;;;;2.62;78.54;101092.44;5018931;28;20379;-88
2022/01/07 21:09:38;;;;;;;5.25;1.50;;;;;;;2.62;78.29;101084.56;5022726;28;20041;-89
2022/01/07 21:12:04;;;;;;;4.78;1.23;;;;;;;2.60;78.70;101087.22;5021183;28;20033;-89
2022/01/07 21:14:30;;;;;;;6.03;1.52;;;;;;;2.59;79.07;101092.47;5029137;28;20036;-90
2022/01/07 21:17:10;;;;;;;10.07;1.80;;;;;;;2.64;78.90;101090.69;5024862;28;20036;-90
2022/01/07 21:19:38;;;;;;;4.90;1.25;;;;;;;2.66;79.26;101089.75;5026932;28;20497;-87
2022/01/07 21:22:09;;;;;;;4.38;1.38;;;;;;;2.68;79.32;101084.47;5039609;28;20020;-88
2022/01/07 21:24:35;;;;;;;4.18;1.30;;;;;;;2.67;79.81;101080.06;4980385;28;20045;-89
2022/01/07 21:27:29;;;;;;;6.15;1.63;;;;;;;2.68;79.44;101084.47;4966320;28;20070;-91
2022/01/07 21:29:58;;;;;;;6.50;1.10;;;;;;;2.64;79.52;101085.41;4972731;28;20736;-89
2022/01/07 21:32:24;;;;;;;2.63;0.98;;;;;;;2.62;79.37;101087.19;4983936;28;20085;-89
2022/01/07 21:34:52;;;;;;;4.63;1.42;;;;;;;2.64;79.41;101090.69;4966025;28;20065;-91
2022/01/07 21:37:17;;;;;;;6.63;1.17;;;;;;;2.68;79.43;101095.84;4980258;28;20385;-89
2022/01/07 21:39:45;;;;;;;6.78;1.50;;;;;;;2.66;79.93;101095.03;4982152;28;20030;-90
2022/01/07 21:42:17;;;;;;;4.68;1.25;;;;;;;2.64;79.71;101096.81;4982145;28;20038;-90
2022/01/07 21:44:43;;;;;;;4.57;1.30;;;;;;;2.61;80.39;101102.09;4979208;28;20129;-88
2022/01/07 21:47:11;;;;;;;4.55;1.17;;;;;;;2.60;79.80;101105.66;4977892;28;20126;-90
2022/01/07 21:49:37;;;;;;;4.03;1.30;;;;;;;2.62;79.72;101110.88;4970400;28;20121;-89
2022/01/07 21:52:02;;;;;;;2.40;0.90;;;;;;;2.56;79.81;101103.94;4970503;28;20068;-89
2022/01/07 21:54:28;;;;;;;2.40;0.75;;;;;;;2.50;79.87;101106.66;4971535;28;20057;-90
2022/01/07 21:56:54;;;;;;;1.65;0.93;;;;;;;2.40;80.45;101108.53;5026505;28;20017;-90
2022/01/07 21:59:22;;;;;;;6.45;1.27;;;;;;;2.35;80.89;101105.06;5035116;28;20033;-90
2022/01/07 22:01:50;;;;;;;8.95;1.73;;;;;;;2.36;80.95;101112.06;5032860;28;20020;-90
2022/01/07 22:04:15;;;;;;;3.63;1.10;;;;;;;2.36;81.09;101102.44;5034023;28;20025;-90
2022/01/07 22:06:41;;;;;;;3.03;0.90;;;;;;;2.34;81.30;101111.22;5036673;28;20024;-90
2022/01/07 22:09:07;;;;;;;1.60;0.77;;;;;;;2.32;81.43;101113.03;5045431;28;20033;-91
2022/01/07 22:11:33;;;;;;;2.22;0.70;;;;;;;2.26;81.68;101113.94;5028455;28;20029;-91
2022/01/07 22:14:02;;;;;;;5.60;1.02;;;;;;;2.23;82.40;101116.59;5032479;28;20053;-91
2022/01/07 22:16:28;;;;;;;3.75;1.13;;;;;;;2.20;83.94;101121.94;5029873;28;20033;-91
2022/01/07 22:18:54;;;;;;;5.88;1.38;;;;;;;2.19;84.52;101117.56;5026357;28;20025;-91
2022/01/07 22:21:20;;;;;;;7.25;1.10;;;;;;;2.15;84.63;101116.72;5026712;28;20120;-90
2022/01/07 22:23:46;;;;;;;1.75;0.70;;;;;;;2.12;84.38;101118.50;5026786;28;20524;-91
2022/01/07 22:26:15;;;;;;;5.03;1.13;;;;;;;2.12;84.29;101121.13;5027221;28;20068;-91
2022/01/07 22:28:41;;;;;;;2.58;0.90;;;;;;;2.15;83.93;101118.44;5031078;28;20103;-90
2022/01/07 22:31:06;;;;;;;1.98;0.77;;;;;;;2.15;84.11;101118.44;5026126;28;20079;-90
2022/01/07 22:33:32;;;;;;;5.85;1.00;;;;;;;2.11;83.48;101122.88;5029598;28;20535;-90
2022/01/07 22:35:57;;;;;;;3.55;1.10;;;;;;;2.07;83.64;101126.44;5031402;28;20080;-90
2022/01/07 22:38:23;;;;;;;5.88;1.52;;;;;;;2.03;83.84;101128.25;5025491;28;20116;-91
2022/01/07 22:40:52;;;;;;;3.28;1.13;;;;;;;2.00;84.13;101125.63;5027272;28;20052;-90
2022/01/07 22:43:17;;;;;;;6.72;1.60;;;;;;;2.00;84.38;101124.78;5027533;28;20356;-90
2022/01/07 22:45:43;;;;;;;5.82;1.90;;;;;;;1.94;84.16;101130.09;5023621;28;20167;-91
2022/01/07 22:48:14;;;;;;;4.28;1.23;;;;;;;1.86;84.83;101130.16;5023514;28;20119;-90
2022/01/07 22:50:40;;;;;;;5.65;1.65;;;;;;;1.79;85.40;101131.09;5027494;28;20067;-90
2022/01/07 22:53:05;;;;;;;7.00;1.60;;;;;;;1.69;85.83;101133.81;5035994;28;20028;-91
2022/01/07 22:55:31;;;;;;;8.55;1.50;;;;;;;1.63;86.88;101133.03;5032781;28;20021;-90
2022/01/07 22:57:59;;;;;;;7.53;1.80;;;;;;;1.57;87.06;101133.94;5028568;28;20051;-90
2022/01/07 23:00:34;;;;;;;4.97;1.73;;;;;;;1.52;87.27;101133.97;5031187;28;20088;-89
2022/01/07 23:03:30;;;;;;;6.43;2.00;;;;;;;1.57;86.68;101131.31;5031590;28;20029;-89
2022/01/07 23:05:56;;;;;;;11.27;2.17;;;;;;;1.72;85.64;101135.56;5046074;28;20032;-90
2022/01/07 23:08:22;;;;;;;4.72;1.45;;;;;;;1.79;85.40;101134.63;5030606;28;20394;-90
2022/01/07 23:10:51;;;;;;;15.88;1.70;;;;;;;1.82;85.02;101141.63;5036775;28;20060;-90
2022/01/07 23:13:28;;;;;;;4.03;1.15;;;;;;;1.83;84.87;101135.47;5028641;28;20025;-90
2022/01/07 23:15:58;;;;;;;7.45;1.25;;;;;;;1.81;84.55;101142.50;5030949;28;20108;-90
2022/01/07 23:18:27;;;;;;;3.20;1.23;;;;;;;1.72;84.64;101141.69;5034989;28;20037;-90
2022/01/07 23:21:00;;;;;;;8.30;1.48;;;;;;;1.66;85.31;101147.00;5033861;28;20162;-89
2022/01/07 23:23:31;;;;;;;2.35;1.02;;;;;;;1.62;85.54;101149.69;5031574;28;20032;-90
2022/01/07 23:26:00;;;;;;;9.52;1.67;;;;;;;1.54;86.09;101154.97;5025277;28;20028;-91
2022/01/07 23:28:25;;;;;;;5.13;1.60;;;;;;;1.48;86.76;101149.78;5032200;28;20036;-90
2022/01/07 23:30:54;;;;;;;12.00;1.70;;;;;;;1.42;86.65;101155.94;5002804;28;20050;-90
2022/01/07 23:33:20;;;;;;;8.45;1.55;;;;;;;1.40;86.89;101170.88;4992073;28;20040;-85
2022/01/07 23:35:50;;;;;;;2.45;0.70;;;;;;;1.34;86.68;101171.78;5009533;28;20460;-86
2022/01/07 23:38:36;;;;;;;7.22;1.60;;;;;;;1.31;86.77;101171.81;5008581;28;20534;-87
2022/01/07 23:41:04;;;;;;;5.18;1.25;;;;;;;1.29;87.02;101172.69;5005431;28;20080;-86
2022/01/07 23:43:30;;;;;;;5.72;1.45;;;;;;;1.27;87.39;101173.59;5010102;28;20495;-86
2022/01/07 23:46:11;;;;;;;8.20;1.40;;;;;;;1.30;87.15;101174.44;4992929;28;20026;-87
2022/01/07 23:48:47;;;;;;;14.20;1.55;;;;;;;1.34;87.03;101184.09;5009613;28;20026;-86
2022/01/07 23:51:18;;;;;;;3.50;0.80;;;;;;;1.34;86.87;101182.31;5011657;28;20499;-84
2022/01/07 23:53:52;;;;;;;3.20;0.93;;;;;;;1.36;86.86;101187.53;4996123;28;20026;-84
2022/01/07 23:56:22;;;;;;;7.63;1.27;;;;;;;1.36;86.89;101184.91;5011284;28;20109;-86
2022/01/07 23:58:48;;;;;;;4.20;1.67;;;;;;;1.40;86.98;101194.53;4998161;28;20036;-86
